createdAt,value
2019-03-10T00:02:20.111Z,11.97
2019-03-10T00:04:51.438Z,11.79
2019-03-10T00:07:23.091Z,11.68
2019-03-10T00:09:54.841Z,11.64
2019-03-10T00:12:26.593Z,11.60
2019-03-10T00:14:58.099Z,11.52
2019-03-10T00:17:29.637Z,11.50
2019-03-10T00:20:01.119Z,11.57
2019-03-10T00:22:32.339Z,11.65
2019-03-10T00:25:03.807Z,11.81
2019-03-10T00:27:35.493Z,11.79
2019-03-10T00:30:07.191Z,11.85
2019-03-10T00:32:38.657Z,11.90
2019-03-10T00:35:09.892Z,11.90
2019-03-10T00:37:41.015Z,12.00
2019-03-10T00:40:58.610Z,12.04
2019-03-10T00:44:12.426Z,12.01
2019-03-10T00:47:42.346Z,12.01
2019-03-10T00:50:50.302Z,12.07
2019-03-10T00:53:21.894Z,12.01
2019-03-10T00:55:53.653Z,12.04
2019-03-10T00:58:25.338Z,12.05
2019-03-10T01:00:57.649Z,12.12
2019-03-10T01:03:28.942Z,12.23
2019-03-10T01:06:00.301Z,12.24
2019-03-10T01:08:32.244Z,12.25
2019-03-10T01:11:03.844Z,12.26
2019-03-10T01:13:35.530Z,12.35
2019-03-10T01:16:06.699Z,12.35
2019-03-10T01:18:39.907Z,12.38
2019-03-10T01:21:12.755Z,12.39
2019-03-10T01:23:44.166Z,12.40
2019-03-10T01:26:16.375Z,12.24
2019-03-10T01:28:47.785Z,12.22
2019-03-10T01:31:24.365Z,12.18
2019-03-10T01:34:26.716Z,12.17
2019-03-10T01:36:58.032Z,12.06
2019-03-10T01:39:30.678Z,12.03
2019-03-10T01:42:02.066Z,11.86
2019-03-10T01:44:33.529Z,11.70
2019-03-10T01:47:05.229Z,11.70
2019-03-10T01:49:36.927Z,11.50
2019-03-10T01:52:08.286Z,11.47
2019-03-10T01:54:39.960Z,11.49
2019-03-10T01:57:11.637Z,11.43
2019-03-10T01:59:43.158Z,11.37
2019-03-10T02:02:14.895Z,11.26
2019-03-10T02:04:46.479Z,11.15
2019-03-10T02:07:18.211Z,11.15
2019-03-10T02:09:49.800Z,11.06
2019-03-10T02:12:21.481Z,11.14
2019-03-10T02:14:53.042Z,11.06
2019-03-10T02:17:24.557Z,11.13
2019-03-10T02:19:56.741Z,11.26
2019-03-10T02:22:29.158Z,11.25
2019-03-10T02:25:00.521Z,11.34
2019-03-10T02:27:31.833Z,11.44
2019-03-10T02:30:03.115Z,11.48
2019-03-10T02:32:34.609Z,11.40
2019-03-10T02:35:06.211Z,11.53
2019-03-10T02:37:37.515Z,11.63
2019-03-10T02:40:09.856Z,11.64
2019-03-10T02:42:41.145Z,11.65
2019-03-10T02:45:12.679Z,11.81
2019-03-10T02:47:43.984Z,11.71
2019-03-10T02:50:15.579Z,11.71
2019-03-10T02:52:46.982Z,11.60
2019-03-10T02:55:18.542Z,11.73
2019-03-10T02:57:49.971Z,11.80
2019-03-10T03:00:21.354Z,11.64
2019-03-10T03:02:52.555Z,11.51
2019-03-10T03:05:23.844Z,11.33
2019-03-10T03:07:55.517Z,11.32
2019-03-10T03:10:27.006Z,11.04
2019-03-10T03:12:58.374Z,10.93
2019-03-10T03:15:29.715Z,10.84
2019-03-10T03:18:01.038Z,10.74
2019-03-10T03:20:33.497Z,10.72
2019-03-10T03:23:04.988Z,10.72
2019-03-10T03:25:37.579Z,10.54
2019-03-10T03:28:09.130Z,10.51
2019-03-10T03:30:40.769Z,10.41
2019-03-10T03:33:12.388Z,10.18
2019-03-10T03:35:52.591Z,9.98
2019-03-10T03:38:32.886Z,9.84
2019-03-10T03:41:06.713Z,9.59
2019-03-10T03:43:38.043Z,9.44
2019-03-10T03:46:09.762Z,9.41
2019-03-10T03:48:41.536Z,9.41
2019-03-10T03:51:13.028Z,9.33
2019-03-10T03:53:44.613Z,9.42
2019-03-10T03:56:16.107Z,9.38
2019-03-10T03:58:47.755Z,9.50
2019-03-10T04:01:31.268Z,9.57
2019-03-10T04:04:02.564Z,9.76
2019-03-10T04:06:34.134Z,9.97
2019-03-10T04:09:07.754Z,10.16
2019-03-10T04:11:39.523Z,10.34
2019-03-10T04:14:11.106Z,10.51
2019-03-10T04:16:42.413Z,10.71
2019-03-10T04:19:14.096Z,10.89
2019-03-10T04:21:45.413Z,10.95
2019-03-10T04:24:16.885Z,11.05
2019-03-10T04:26:48.447Z,11.18
2019-03-10T04:29:21.656Z,11.17
2019-03-10T04:31:52.978Z,11.15
2019-03-10T04:34:24.533Z,11.08
2019-03-10T04:36:56.030Z,11.11
2019-03-10T04:39:27.445Z,11.29
2019-03-10T04:42:00.046Z,11.23
2019-03-10T04:44:31.397Z,11.28
2019-03-10T04:47:02.870Z,11.39
2019-03-10T04:49:34.506Z,11.23
2019-03-10T04:52:05.926Z,11.30
2019-03-10T04:54:54.918Z,11.41
2019-03-10T04:57:26.265Z,11.27
2019-03-10T04:59:57.803Z,11.21
2019-03-10T05:02:29.210Z,11.12
2019-03-10T05:05:00.739Z,11.19
2019-03-10T05:07:32.083Z,11.04
2019-03-10T05:10:03.518Z,10.94
2019-03-10T05:12:34.909Z,10.74
2019-03-10T05:15:06.458Z,10.52
2019-03-10T05:17:37.785Z,10.57
2019-03-10T05:20:09.343Z,10.49
2019-03-10T05:22:40.704Z,10.44
2019-03-10T05:25:12.127Z,10.41
2019-03-10T05:27:43.553Z,10.35
2019-03-10T05:30:14.988Z,10.27
2019-03-10T05:32:46.358Z,10.30
2019-03-10T05:35:17.959Z,10.16
2019-03-10T05:37:49.229Z,10.22
2019-03-10T05:40:20.432Z,10.30
2019-03-10T05:42:51.963Z,10.40
2019-03-10T05:45:23.503Z,10.52
2019-03-10T05:47:54.992Z,10.55
2019-03-10T05:50:26.426Z,10.70
2019-03-10T05:52:57.656Z,10.93
2019-03-10T05:55:28.890Z,10.93
2019-03-10T05:58:00.192Z,11.17
2019-03-10T06:00:41.729Z,11.50
2019-03-10T06:03:05.215Z,12.05
2019-03-10T06:05:36.647Z,12.49
2019-03-10T06:08:07.655Z,12.98
2019-03-10T06:10:38.663Z,12.70
2019-03-10T06:13:09.933Z,12.43
2019-03-10T06:15:41.446Z,12.57
2019-03-10T06:18:14.097Z,12.84
2019-03-10T06:20:45.193Z,13.15
2019-03-10T06:23:16.459Z,13.44
2019-03-10T06:25:47.459Z,13.81
2019-03-10T06:28:18.642Z,13.89
2019-03-10T06:30:49.698Z,14.30
2019-03-10T06:33:20.627Z,14.39
2019-03-10T06:35:51.902Z,14.58
2019-03-10T06:38:22.989Z,15.13
2019-03-10T06:40:54.360Z,15.24
2019-03-10T06:43:25.590Z,15.41
2019-03-10T06:45:57.323Z,15.78
2019-03-10T06:48:28.276Z,15.78
2019-03-10T06:50:59.450Z,15.99
2019-03-10T06:53:30.397Z,16.00
2019-03-10T06:56:01.429Z,16.19
2019-03-10T06:58:32.721Z,16.22
2019-03-10T07:01:04.122Z,16.34
2019-03-10T07:03:35.439Z,16.34
2019-03-10T07:06:06.684Z,16.21
2019-03-10T07:08:37.891Z,16.53
2019-03-10T07:11:08.909Z,16.21
2019-03-10T07:13:39.895Z,16.09
2019-03-10T07:16:10.969Z,15.76
2019-03-10T07:18:42.230Z,15.63
2019-03-10T07:21:13.478Z,15.77
2019-03-10T07:23:45.182Z,16.05
2019-03-10T07:26:16.479Z,15.96
2019-03-10T07:28:59.027Z,15.98
2019-03-10T07:32:01.285Z,16.26
2019-03-10T07:34:46.888Z,16.30
2019-03-10T07:37:31.746Z,16.67
2019-03-10T07:40:25.224Z,16.70
2019-03-10T07:43:21.355Z,16.75
2019-03-10T07:45:59.153Z,16.80
2019-03-10T07:48:51.842Z,16.77
2019-03-10T07:51:44.834Z,16.85
2019-03-10T07:54:37.661Z,16.64
2019-03-10T07:57:30.554Z,17.20
2019-03-10T08:00:29.285Z,17.29
2019-03-10T08:03:09.935Z,17.44
2019-03-10T08:06:00.017Z,17.55
2019-03-10T08:08:48.822Z,17.70
2019-03-10T08:11:37.532Z,17.72
2019-03-10T08:14:23.749Z,18.14
2019-03-10T08:17:10.813Z,18.09
2019-03-10T08:19:55.789Z,17.70
2019-03-10T08:22:44.034Z,17.70
2019-03-10T08:25:40.247Z,18.38
2019-03-10T08:28:29.269Z,18.46
2019-03-10T08:31:19.330Z,18.46
2019-03-10T08:34:08.490Z,18.75
2019-03-10T08:36:56.355Z,18.95
2019-03-10T08:39:38.416Z,18.90
2019-03-10T08:42:20.627Z,18.41
2019-03-10T08:45:08.031Z,18.55
2019-03-10T08:47:47.865Z,18.64
2019-03-10T08:50:46.774Z,18.51
2019-03-10T08:53:33.503Z,18.13
2019-03-10T08:56:22.428Z,18.01
2019-03-10T08:59:12.972Z,18.48
2019-03-10T09:02:10.365Z,18.48
2019-03-10T09:05:00.553Z,18.72
2019-03-10T09:07:53.071Z,18.85
2019-03-10T09:10:52.271Z,19.16
2019-03-10T09:13:33.017Z,18.72
2019-03-10T09:16:21.318Z,19.27
2019-03-10T09:19:14.051Z,18.74
2019-03-10T09:22:09.952Z,18.89
2019-03-10T09:25:15.381Z,18.68
2019-03-10T09:28:11.120Z,18.88
2019-03-10T09:31:01.009Z,18.47
2019-03-10T09:33:51.091Z,18.88
2019-03-10T09:36:43.943Z,19.11
2019-03-10T09:39:32.500Z,19.15
2019-03-10T09:42:21.445Z,18.84
2019-03-10T09:45:17.222Z,19.13
2019-03-10T09:48:25.424Z,19.62
2019-03-10T09:51:33.160Z,19.85
2019-03-10T09:54:21.620Z,19.74
2019-03-10T09:57:10.493Z,19.25
2019-03-10T10:00:06.814Z,19.18
2019-03-10T10:02:55.791Z,19.16
2019-03-10T10:05:50.588Z,19.40
2019-03-10T10:08:40.988Z,19.77
2019-03-10T10:11:40.065Z,20.29
2019-03-10T10:14:22.472Z,20.98
2019-03-10T10:17:15.365Z,21.23
2019-03-10T10:19:55.330Z,21.19
2019-03-10T10:22:38.330Z,20.66
2019-03-10T10:25:28.393Z,21.12
2019-03-10T10:28:16.593Z,20.99
2019-03-10T10:31:09.267Z,21.25
2019-03-10T10:33:55.731Z,21.53
2019-03-10T10:37:00.838Z,21.69
2019-03-10T10:40:02.859Z,21.95
2019-03-10T10:43:04.759Z,21.83
2019-03-10T10:46:04.138Z,21.07
2019-03-10T10:48:54.376Z,21.46
2019-03-10T10:51:47.209Z,21.75
2019-03-10T10:54:38.365Z,21.63
2019-03-10T10:57:16.435Z,21.53
2019-03-10T11:00:03.257Z,21.55
2019-03-10T11:03:06.869Z,21.50
2019-03-10T11:05:54.335Z,21.77
2019-03-10T11:08:49.166Z,21.17
2019-03-10T11:11:41.785Z,21.25
2019-03-10T11:14:34.313Z,20.95
2019-03-10T11:17:20.181Z,21.05
2019-03-10T11:20:04.092Z,20.70
2019-03-10T11:22:50.062Z,20.98
2019-03-10T11:25:50.245Z,21.18
2019-03-10T11:28:38.905Z,21.31
2019-03-10T11:31:28.849Z,21.65
2019-03-10T11:34:35.363Z,21.38
2019-03-10T11:37:28.997Z,21.53
2019-03-10T11:40:25.125Z,21.39
2019-03-10T11:43:01.968Z,20.92
2019-03-10T11:45:50.359Z,21.27
2019-03-10T11:48:35.240Z,20.76
2019-03-10T11:51:25.301Z,20.86
2019-03-10T11:54:06.755Z,20.57
2019-03-10T11:59:56.810Z,21.07
2019-03-10T12:02:47.634Z,20.81
2019-03-10T12:05:46.716Z,20.31
2019-03-10T12:08:26.756Z,20.17
2019-03-10T12:10:57.853Z,21.14
2019-03-10T12:13:28.931Z,21.33
2019-03-10T12:15:59.950Z,21.47
2019-03-10T12:18:31.158Z,21.75
2019-03-10T12:21:02.291Z,21.50
2019-03-10T12:23:33.520Z,21.47
2019-03-10T12:26:04.814Z,21.49
2019-03-10T12:28:35.905Z,21.58
2019-03-10T12:31:07.375Z,21.64
2019-03-10T12:33:38.395Z,21.42
2019-03-10T12:36:10.770Z,21.52
2019-03-10T12:38:41.976Z,21.03
2019-03-10T12:41:13.049Z,20.79
2019-03-10T12:43:45.127Z,20.94
2019-03-10T12:46:16.317Z,20.88
2019-03-10T12:48:47.401Z,20.95
2019-03-10T12:51:18.652Z,20.71
2019-03-10T12:53:50.033Z,20.83
2019-03-10T12:56:21.276Z,20.76
2019-03-10T12:58:52.618Z,21.05
2019-03-10T13:01:23.804Z,21.01
2019-03-10T13:03:59.007Z,20.69
2019-03-10T13:06:28.298Z,20.40
2019-03-10T13:08:59.591Z,20.46
2019-03-10T13:11:30.540Z,20.30
2019-03-10T13:14:01.560Z,20.56
2019-03-10T13:16:32.470Z,20.58
2019-03-10T13:19:03.573Z,20.69
2019-03-10T13:21:34.735Z,20.21
2019-03-10T13:24:05.934Z,20.00
2019-03-10T13:26:41.625Z,20.20
2019-03-10T13:29:13.047Z,20.24
2019-03-10T13:31:44.294Z,20.18
2019-03-10T13:34:15.373Z,20.41
2019-03-10T13:36:46.682Z,20.51
2019-03-10T13:39:17.815Z,20.65
2019-03-10T13:41:49.023Z,20.83
2019-03-10T13:44:20.026Z,20.98
2019-03-10T13:46:51.393Z,21.12
2019-03-10T13:49:22.477Z,21.01
2019-03-10T13:51:53.950Z,21.16
2019-03-10T13:54:25.295Z,21.09
2019-03-10T13:56:58.113Z,21.18
2019-03-10T13:59:29.677Z,21.11
2019-03-10T14:02:01.119Z,20.67
2019-03-10T14:04:33.497Z,20.64
2019-03-10T14:07:07.070Z,20.66
2019-03-10T14:09:38.557Z,20.68
2019-03-10T14:12:09.715Z,20.63
2019-03-10T14:14:40.881Z,20.72
2019-03-10T14:17:12.265Z,20.77
2019-03-10T14:19:43.661Z,20.90
2019-03-10T14:22:15.056Z,20.96
2019-03-10T14:24:46.355Z,20.77
2019-03-10T14:27:17.546Z,20.59
2019-03-10T14:29:49.200Z,20.56
2019-03-10T14:32:20.230Z,20.48
2019-03-10T14:34:51.433Z,20.19
2019-03-10T14:37:22.837Z,20.01
2019-03-10T14:39:53.957Z,20.14
2019-03-10T14:42:25.525Z,20.07
2019-03-10T14:44:56.793Z,19.96
2019-03-10T14:47:28.196Z,20.04
2019-03-10T14:49:59.535Z,20.00
2019-03-10T14:52:31.650Z,20.05
2019-03-10T14:55:02.730Z,19.97
2019-03-10T14:57:34.014Z,20.04
2019-03-10T15:00:06.435Z,20.12
2019-03-10T15:02:38.048Z,20.10
2019-03-10T15:05:09.622Z,20.06
2019-03-10T15:07:41.244Z,20.08
2019-03-10T15:10:13.237Z,20.09
2019-03-10T15:12:44.889Z,20.10
2019-03-10T15:15:22.349Z,20.16
2019-03-10T15:17:49.339Z,20.19
2019-03-10T15:20:21.724Z,20.18
2019-03-10T15:22:54.237Z,20.15
2019-03-10T15:25:25.793Z,20.02
2019-03-10T15:27:56.976Z,19.93
2019-03-10T15:30:28.374Z,19.99
2019-03-10T15:32:59.501Z,19.70
2019-03-10T15:35:30.587Z,19.58
2019-03-10T15:38:01.721Z,19.67
2019-03-10T15:40:32.966Z,19.60
2019-03-10T15:43:04.112Z,19.66
2019-03-10T15:45:35.201Z,19.58
2019-03-10T15:48:06.682Z,19.48
2019-03-10T15:50:37.691Z,19.51
2019-03-10T15:53:08.815Z,19.44
2019-03-10T15:55:39.857Z,19.44
2019-03-10T15:58:10.995Z,19.52
2019-03-10T16:00:42.354Z,19.55
2019-03-10T16:03:13.797Z,19.49
2019-03-10T16:05:45.074Z,19.46
2019-03-10T16:08:16.276Z,19.43
2019-03-10T16:10:47.485Z,19.30
2019-03-10T16:13:18.822Z,19.26
2019-03-10T16:15:50.327Z,19.30
2019-03-10T16:18:21.418Z,19.27
2019-03-10T16:20:52.523Z,19.27
2019-03-10T16:23:23.721Z,19.05
2019-03-10T16:25:55.086Z,18.89
2019-03-10T16:28:26.141Z,18.97
2019-03-10T16:30:57.364Z,18.98
2019-03-10T16:33:29.002Z,19.02
2019-03-10T16:36:00.232Z,18.77
2019-03-10T16:38:31.235Z,18.76
2019-03-10T16:41:02.314Z,18.73
2019-03-10T16:43:33.750Z,18.72
2019-03-10T16:46:04.869Z,18.62
2019-03-10T16:48:36.229Z,18.64
2019-03-10T16:51:07.573Z,18.59
2019-03-10T16:53:41.651Z,18.38
2019-03-10T16:56:12.050Z,18.38
2019-03-10T16:58:44.586Z,18.36
2019-03-10T17:01:15.997Z,18.37
2019-03-10T17:03:47.408Z,18.38
2019-03-10T17:06:18.840Z,18.48
2019-03-10T17:08:50.280Z,18.50
2019-03-10T17:11:21.965Z,18.42
2019-03-10T17:13:53.435Z,18.43
2019-03-10T17:16:25.839Z,18.44
2019-03-10T17:18:57.240Z,18.39
2019-03-10T17:21:28.767Z,18.28
2019-03-10T17:24:00.177Z,18.19
2019-03-10T17:26:31.402Z,18.11
2019-03-10T17:29:02.529Z,18.11
2019-03-10T17:31:33.835Z,18.22
2019-03-10T17:34:05.041Z,18.17
2019-03-10T17:36:36.427Z,18.30
2019-03-10T17:39:08.920Z,18.26
2019-03-10T17:41:40.370Z,18.03
2019-03-10T17:44:12.726Z,18.07
2019-03-10T17:46:44.225Z,18.07
2019-03-10T17:49:15.607Z,18.07
2019-03-10T17:51:47.073Z,18.02
2019-03-10T17:54:18.245Z,18.07
2019-03-10T17:56:49.706Z,18.08
2019-03-10T17:59:20.788Z,18.12
2019-03-10T18:01:51.846Z,18.04
2019-03-10T18:04:23.018Z,18.07
2019-03-10T18:06:54.165Z,18.07
2019-03-10T18:09:25.116Z,18.23
2019-03-10T18:11:56.258Z,18.23
2019-03-10T18:14:27.251Z,18.27
2019-03-10T18:16:58.485Z,18.28
2019-03-10T18:19:29.441Z,18.27
2019-03-10T18:22:00.844Z,18.30
2019-03-10T18:24:32.182Z,18.32
2019-03-10T18:27:03.443Z,18.23
2019-03-10T18:29:34.855Z,18.22
2019-03-10T18:32:06.335Z,18.23
2019-03-10T18:34:37.737Z,18.22
2019-03-10T18:37:09.168Z,18.16
2019-03-10T18:39:40.518Z,18.18
2019-03-10T18:42:11.841Z,18.19
2019-03-10T18:44:43.185Z,18.20
2019-03-10T18:47:14.227Z,18.10
2019-03-10T18:49:46.326Z,18.10
2019-03-10T18:52:17.519Z,18.16
2019-03-10T18:54:48.704Z,18.16
2019-03-10T18:57:19.837Z,18.11
2019-03-10T18:59:51.301Z,18.05
2019-03-10T19:02:22.714Z,18.05
2019-03-10T19:04:54.193Z,18.03
2019-03-10T19:07:25.300Z,17.99
2019-03-10T19:09:56.469Z,17.99
2019-03-10T19:12:27.550Z,17.88
2019-03-10T19:14:58.638Z,17.84
2019-03-10T19:17:29.890Z,17.93
2019-03-10T19:20:01.130Z,17.92
2019-03-10T19:22:33.700Z,17.83
2019-03-10T19:25:05.016Z,17.84
2019-03-10T19:27:36.225Z,17.86
2019-03-10T19:30:08.095Z,17.87
2019-03-10T19:32:39.952Z,17.93
2019-03-10T19:35:12.085Z,17.86
2019-03-10T19:37:43.356Z,17.86
2019-03-10T19:40:15.096Z,17.88
2019-03-10T19:42:46.209Z,17.81
2019-03-10T19:45:17.891Z,17.73
2019-03-10T19:47:49.082Z,17.76
2019-03-10T19:50:20.382Z,17.80
2019-03-10T19:52:51.599Z,17.76
2019-03-10T19:55:23.141Z,17.70
2019-03-10T19:57:54.444Z,17.54
2019-03-10T20:00:25.768Z,17.54
2019-03-10T20:02:57.101Z,17.52
2019-03-10T20:05:28.443Z,17.54
2019-03-10T20:07:59.358Z,17.49
2019-03-10T20:10:30.468Z,17.50
2019-03-10T20:13:01.772Z,17.52
2019-03-10T20:15:32.720Z,17.41
2019-03-10T20:18:04.239Z,17.35
2019-03-10T20:20:35.182Z,17.28
2019-03-10T20:23:06.201Z,17.18
2019-03-10T20:25:37.297Z,17.17
2019-03-10T20:28:09.509Z,17.12
2019-03-10T20:30:40.485Z,17.13
2019-03-10T20:33:11.419Z,17.02
2019-03-10T20:35:42.407Z,17.09
2019-03-10T20:38:14.044Z,17.12
2019-03-10T20:40:45.589Z,16.99
2019-03-10T20:43:16.775Z,16.99
2019-03-10T20:45:47.771Z,16.89
2019-03-10T20:48:18.907Z,16.58
2019-03-10T20:50:49.936Z,16.58
2019-03-10T20:53:20.962Z,16.66
2019-03-10T20:55:51.963Z,16.54
2019-03-10T20:58:23.003Z,16.54
2019-03-10T21:00:54.384Z,16.39
2019-03-10T21:03:25.707Z,16.23
2019-03-10T21:05:56.639Z,16.23
2019-03-10T21:08:28.059Z,16.06
2019-03-10T21:10:59.333Z,15.92
2019-03-10T21:13:30.377Z,15.97
2019-03-10T21:16:01.411Z,15.84
2019-03-10T21:18:32.428Z,15.92
2019-03-10T21:21:03.566Z,15.92
2019-03-10T21:23:35.577Z,15.74
2019-03-10T21:26:06.528Z,15.83
2019-03-10T21:28:37.539Z,15.83
2019-03-10T21:31:08.860Z,15.86
2019-03-10T21:33:39.873Z,15.73
2019-03-10T21:36:10.978Z,15.74
2019-03-10T21:38:42.314Z,15.67
2019-03-10T21:41:14.566Z,15.67
2019-03-10T21:43:46.126Z,15.62
2019-03-10T21:46:17.689Z,15.54
2019-03-10T21:48:48.997Z,15.61
2019-03-10T21:51:20.113Z,15.52
2019-03-10T21:53:51.096Z,15.38
2019-03-10T21:56:22.432Z,15.42
2019-03-10T21:58:53.515Z,15.35
2019-03-10T22:01:24.662Z,15.37
2019-03-10T22:03:56.030Z,15.29
2019-03-10T22:06:28.048Z,15.32
2019-03-10T22:08:59.233Z,15.37
2019-03-10T22:11:30.464Z,15.45
2019-03-10T22:14:02.776Z,15.42
2019-03-10T22:16:33.794Z,15.33
2019-03-10T22:19:04.715Z,15.32
2019-03-10T22:21:35.967Z,15.35
2019-03-10T22:24:07.562Z,15.37
2019-03-10T22:26:38.711Z,15.21
2019-03-10T22:29:10.016Z,14.96
2019-03-10T22:31:41.056Z,14.92
2019-03-10T22:34:12.514Z,14.84
2019-03-10T22:36:43.614Z,14.72
2019-03-10T22:39:14.874Z,14.73
2019-03-10T22:41:45.989Z,14.84
2019-03-10T22:44:17.311Z,14.74
2019-03-10T22:46:48.616Z,14.87
2019-03-10T22:49:19.820Z,14.79
2019-03-10T22:51:50.866Z,14.67
2019-03-10T22:54:21.968Z,14.65
2019-03-10T22:56:53.955Z,14.57
2019-03-10T22:59:24.943Z,14.61
2019-03-10T23:01:56.262Z,14.64
2019-03-10T23:04:27.252Z,14.67
2019-03-10T23:06:58.389Z,14.64
2019-03-10T23:09:29.370Z,14.59
2019-03-10T23:12:00.312Z,14.66
2019-03-10T23:14:31.372Z,14.66
2019-03-10T23:17:02.655Z,14.58
2019-03-10T23:19:33.705Z,14.35
2019-03-10T23:22:04.835Z,14.43
2019-03-10T23:24:36.211Z,14.41
2019-03-10T23:27:07.712Z,14.15
2019-03-10T23:29:38.913Z,14.11
2019-03-10T23:32:10.370Z,14.06
2019-03-10T23:34:41.745Z,13.92
2019-03-10T23:37:13.048Z,13.90
2019-03-10T23:39:44.129Z,14.03
2019-03-10T23:42:15.446Z,14.11
2019-03-10T23:44:46.787Z,14.15
2019-03-10T23:47:18.111Z,14.10
2019-03-10T23:49:49.176Z,14.13
2019-03-10T23:52:20.395Z,14.10
2019-03-10T23:54:51.467Z,14.08
2019-03-10T23:57:22.540Z,14.21
2019-03-10T23:59:53.686Z,14.07
